Time;durP1;ratioP1;P1;durP2;ratioP2;P2;SDS_P1;SDS_P2;PMS_P1;PMS_P2;Temp;Humidity;BMP_temperature;BMP_pressure;BME280_temperature;BME280_humidity;BME280_pressure;Samples;Min_cycle;Max_cycle;Signal;HPM_P1;HPM_P2
2023/04/16 00:00:06;;;;;;;11.40;6.55;;;4.90;41.30;;;;;;5014362;28;20048;-85
2023/04/16 00:02:33;;;;;;;11.30;6.90;;;4.90;41.30;;;;;;5011991;28;20046;-85
2023/04/16 00:04:58;;;;;;;13.07;6.03;;;5.00;41.40;;;;;;5008828;28;20033;-83
2023/04/16 00:07:24;;;;;;;10.88;6.32;;;4.90;41.50;;;;;;5010898;28;20022;-85
2023/04/16 00:09:50;;;;;;;8.85;6.53;;;4.90;41.50;;;;;;4994442;28;20018;-86
2023/04/16 00:12:16;;;;;;;9.90;6.72;;;4.90;41.50;;;;;;4995722;28;20024;-85
2023/04/16 00:14:42;;;;;;;9.98;6.47;;;4.90;41.50;;;;;;5004675;28;20030;-86
2023/04/16 00:17:09;;;;;;;10.52;6.75;;;4.90;42.20;;;;;;5005620;28;20375;-86
2023/04/16 00:19:35;;;;;;;10.60;6.00;;;4.90;41.70;;;;;;4996984;28;20026;-84
2023/04/16 00:22:01;;;;;;;12.38;5.95;;;4.90;41.70;;;;;;5015823;28;20033;-85
2023/04/16 00:24:26;;;;;;;22.05;8.13;;;4.80;41.80;;;;;;5001815;28;20109;-85
2023/04/16 00:26:52;;;;;;;13.93;6.65;;;4.80;42.00;;;;;;5007117;28;20014;-84
2023/04/16 00:29:18;;;;;;;12.10;7.55;;;4.80;42.20;;;;;;5006955;28;20059;-86
2023/04/16 00:31:44;;;;;;;14.45;7.03;;;4.70;42.20;;;;;;5005675;28;20472;-86
2023/04/16 00:34:10;;;;;;;14.75;8.43;;;4.70;42.40;;;;;;5008780;28;20510;-86
2023/04/16 00:36:36;;;;;;;12.75;7.28;;;4.70;42.60;;;;;;5004065;28;20054;-86
2023/04/16 00:39:02;;;;;;;11.40;6.80;;;4.60;42.60;;;;;;4990849;28;20030;-84
2023/04/16 00:41:28;;;;;;;13.98;7.35;;;4.60;42.70;;;;;;5004924;28;20040;-85
2023/04/16 00:43:53;;;;;;;16.35;7.38;;;4.60;42.80;;;;;;5004734;28;20048;-86
2023/04/16 00:46:22;;;;;;;14.82;6.40;;;4.50;42.90;;;;;;5008126;28;20314;-85
2023/04/16 00:48:49;;;;;;;15.85;7.32;;;4.50;43.00;;;;;;5003365;28;20025;-87
2023/04/16 00:51:17;;;;;;;13.00;7.65;;;4.50;43.20;;;;;;5000433;28;20057;-85
2023/04/16 00:53:44;;;;;;;;;;;4.50;43.20;;;;;;5021658;28;20029;-86
2023/04/16 00:56:11;;;;;;;13.18;8.18;;;4.50;43.00;;;;;;5014615;28;19912;-85
2023/04/16 00:58:38;;;;;;;10.98;6.25;;;4.40;43.20;;;;;;4992163;28;20565;-86
2023/04/16 01:01:04;;;;;;;13.23;7.07;;;4.40;43.40;;;;;;5005441;28;20027;-85
2023/04/16 01:03:42;;;;;;;15.07;6.68;;;4.40;43.30;;;;;;5011664;28;20037;-86
2023/04/16 01:06:09;;;;;;;11.35;6.55;;;4.40;43.60;;;;;;4997147;28;20019;-85
2023/04/16 01:08:35;;;;;;;17.17;7.25;;;4.30;43.50;;;;;;4993570;28;20080;-86
2023/04/16 01:11:01;;;;;;;10.40;6.85;;;4.40;43.60;;;;;;4970224;28;20425;-85
2023/04/16 01:13:27;;;;;;;10.38;6.68;;;4.30;43.40;;;;;;4965600;28;20027;-86
2023/04/16 01:15:53;;;;;;;14.10;7.03;;;4.30;43.50;;;;;;4986731;28;20015;-86
2023/04/16 01:18:20;;;;;;;18.35;8.48;;;4.30;43.60;;;;;;4988177;28;20464;-84
2023/04/16 01:20:50;;;;;;;13.55;6.90;;;4.30;43.80;;;;;;5001289;28;20082;-85
2023/04/16 01:23:19;;;;;;;13.50;7.10;;;4.30;44.10;;;;;;4985492;28;20077;-85
2023/04/16 01:25:46;;;;;;;11.55;6.65;;;4.20;44.10;;;;;;4994453;28;20025;-85
2023/04/16 01:28:12;;;;;;;12.65;6.70;;;4.20;44.10;;;;;;4988732;28;20105;-86
2023/04/16 01:30:37;;;;;;;11.40;7.07;;;4.20;44.20;;;;;;4994971;28;20030;-84
2023/04/16 01:33:06;;;;;;;13.32;8.32;;;4.30;44.20;;;;;;4997704;28;20019;-85
2023/04/16 01:35:31;;;;;;;11.40;6.13;;;4.20;44.20;;;;;;5001719;28;20019;-85
2023/04/16 01:37:57;;;;;;;21.42;7.57;;;4.30;44.30;;;;;;4993536;28;20077;-82
2023/04/16 01:40:23;;;;;;;13.95;6.95;;;4.30;44.30;;;;;;4993373;28;20086;-84
2023/04/16 01:42:50;;;;;;;16.38;6.93;;;4.30;44.20;;;;;;4993602;28;20128;-84
2023/04/16 01:45:16;;;;;;;11.65;6.60;;;4.30;44.10;;;;;;5000982;28;20106;-84
2023/04/16 01:47:42;;;;;;;10.80;7.20;;;4.30;44.20;;;;;;4985780;28;20084;-82
2023/04/16 01:50:08;;;;;;;13.63;7.45;;;4.30;44.20;;;;;;4977174;28;20116;-83
2023/04/16 01:52:34;;;;;;;14.90;7.40;;;4.40;44.30;;;;;;5005367;28;20037;-84
2023/04/16 01:55:00;;;;;;;16.17;8.38;;;4.40;44.40;;;;;;4994720;28;20018;-85
2023/04/16 01:57:45;;;;;;;18.25;7.35;;;4.40;44.40;;;;;;4981247;28;20034;-84
2023/04/16 02:00:10;;;;;;;15.20;7.07;;;4.40;44.40;;;;;;4988239;28;20441;-84
2023/04/16 02:02:36;;;;;;;17.30;8.25;;;4.50;44.30;;;;;;5012904;28;20105;-83
2023/04/16 02:05:03;;;;;;;22.83;7.95;;;4.40;44.30;;;;;;4998486;28;20014;-87
2023/04/16 02:07:30;;;;;;;15.80;8.00;;;4.40;44.20;;;;;;5009128;28;20034;-83
2023/04/16 02:09:57;;;;;;;17.55;7.95;;;4.50;44.40;;;;;;5000536;28;20394;-83
2023/04/16 02:12:22;;;;;;;21.55;8.30;;;4.40;44.40;;;;;;5013885;28;20030;-82
2023/04/16 02:14:48;;;;;;;13.52;8.05;;;4.40;44.40;;;;;;4997130;28;20052;-85
2023/04/16 02:17:15;;;;;;;15.82;7.70;;;4.40;44.60;;;;;;4996756;28;20092;-85
2023/04/16 02:19:41;;;;;;;11.70;7.60;;;4.40;44.70;;;;;;4999338;28;20438;-84
2023/04/16 02:22:07;;;;;;;13.02;7.43;;;4.30;44.70;;;;;;4988239;28;20108;-83
2023/04/16 02:24:33;;;;;;;12.82;7.38;;;4.30;44.80;;;;;;4996749;28;20030;-82
2023/04/16 02:26:59;;;;;;;13.63;7.97;;;4.30;44.80;;;;;;4998978;28;20095;-84
2023/04/16 02:29:25;;;;;;;15.95;8.02;;;4.20;44.90;;;;;;4997833;28;20026;-84
2023/04/16 02:31:51;;;;;;;16.88;7.63;;;4.20;45.00;;;;;;4996276;28;20029;-84
2023/04/16 02:34:17;;;;;;;13.90;7.75;;;4.20;45.00;;;;;;5008450;28;20050;-84
2023/04/16 02:36:43;;;;;;;9.90;6.97;;;4.20;45.00;;;;;;5011865;28;20033;-84
2023/04/16 02:39:09;;;;;;;13.93;7.65;;;4.20;45.00;;;;;;4998747;28;20456;-85
2023/04/16 02:41:34;;;;;;;14.65;7.65;;;4.20;45.10;;;;;;4995317;28;20072;-84
2023/04/16 02:44:00;;;;;;;9.98;6.97;;;4.20;45.20;;;;;;5001889;28;20030;-82
2023/04/16 02:46:26;;;;;;;16.08;7.47;;;4.20;45.30;;;;;;5005307;28;20018;-84
2023/04/16 02:48:52;;;;;;;21.25;7.72;;;4.20;45.30;;;;;;5006569;28;20021;-83
2023/04/16 02:51:18;;;;;;;13.80;6.35;;;4.20;45.20;;;;;;5004234;28;20030;-83
2023/04/16 02:53:44;;;;;;;13.77;6.95;;;4.20;45.30;;;;;;5016048;28;20514;-84
2023/04/16 02:56:13;;;;;;;10.25;6.97;;;4.20;45.30;;;;;;5017577;28;20486;-84
2023/04/16 02:58:39;;;;;;;16.00;7.95;;;4.10;45.40;;;;;;5010674;28;20022;-83
2023/04/16 03:01:05;;;;;;;10.75;7.45;;;4.10;45.40;;;;;;5015716;28;20387;-84
2023/04/16 03:03:31;;;;;;;14.50;7.15;;;4.10;45.50;;;;;;5021446;28;20041;-85
2023/04/16 03:05:57;;;;;;;27.15;7.97;;;4.10;45.60;;;;;;5002956;28;20098;-85
2023/04/16 03:08:23;;;;;;;11.82;6.20;;;4.10;45.60;;;;;;5009164;28;20050;-85
2023/04/16 03:10:49;;;;;;;18.55;6.95;;;4.10;45.60;;;;;;4991348;28;20026;-83
2023/04/16 03:13:15;;;;;;;13.73;7.38;;;4.10;45.60;;;;;;4995032;28;20112;-85
2023/04/16 03:15:40;;;;;;;12.98;6.97;;;4.10;46.40;;;;;;4996554;28;20022;-86
2023/04/16 03:18:06;;;;;;;10.98;5.78;;;4.10;45.90;;;;;;4994327;28;20041;-85
2023/04/16 03:20:32;;;;;;;13.75;6.38;;;4.10;45.80;;;;;;5003111;28;20076;-83
2023/04/16 03:22:58;;;;;;;11.15;6.55;;;4.10;45.80;;;;;;5006987;28;20467;-84
2023/04/16 03:25:24;;;;;;;17.27;6.13;;;4.10;45.70;;;;;;5011819;28;20023;-85
2023/04/16 03:27:50;;;;;;;12.52;6.80;;;4.10;45.80;;;;;;4999167;28;20038;-86
2023/04/16 03:30:16;;;;;;;15.27;5.60;;;4.20;45.80;;;;;;5012855;28;20093;-84
2023/04/16 03:32:42;;;;;;;11.75;7.07;;;4.20;45.80;;;;;;4998456;28;20034;-84
2023/04/16 03:35:08;;;;;;;16.55;6.93;;;4.30;45.70;;;;;;5005444;28;20022;-85
2023/04/16 03:37:35;;;;;;;15.20;7.85;;;4.30;45.70;;;;;;4999960;28;20035;-83
2023/04/16 03:40:01;;;;;;;12.48;6.72;;;4.30;45.70;;;;;;4989039;28;20022;-84
2023/04/16 03:42:27;;;;;;;16.45;6.60;;;4.40;45.60;;;;;;4994608;28;20498;-86
2023/04/16 03:44:53;;;;;;;16.77;8.27;;;4.50;45.70;;;;;;4990351;28;20014;-85
2023/04/16 03:47:19;;;;;;;15.23;7.88;;;4.60;45.70;;;;;;4996796;28;20105;-86
2023/04/16 03:49:45;;;;;;;11.18;6.65;;;4.70;45.50;;;;;;5018858;28;20111;-86
2023/04/16 03:52:11;;;;;;;9.50;5.90;;;4.80;45.20;;;;;;5028145;28;20025;-84
2023/04/16 03:54:37;;;;;;;14.18;6.63;;;4.90;45.00;;;;;;5011023;28;20088;-86
2023/04/16 03:57:03;;;;;;;15.75;7.57;;;5.00;44.90;;;;;;5022202;28;20037;-84
2023/04/16 03:59:29;;;;;;;16.00;7.03;;;5.10;44.80;;;;;;5019285;28;20472;-83
2023/04/16 04:01:55;;;;;;;10.38;6.53;;;5.20;44.60;;;;;;5009603;28;20050;-84
2023/04/16 04:04:20;;;;;;;11.15;7.03;;;5.30;44.10;;;;;;5027705;28;20033;-85
2023/04/16 04:06:46;;;;;;;15.00;7.53;;;5.30;44.00;;;;;;5006270;28;20057;-83
2023/04/16 04:09:15;;;;;;;12.65;7.07;;;5.30;44.10;;;;;;4998075;28;20125;-85
2023/04/16 04:11:41;;;;;;;16.35;7.60;;;5.40;44.00;;;;;;4998002;28;20521;-84
2023/04/16 04:14:07;;;;;;;18.40;10.10;;;5.60;44.00;;;;;;5002785;28;20542;-83
2023/04/16 04:16:33;;;;;;;12.65;7.60;;;5.80;44.10;;;;;;5000765;28;20053;-83
2023/04/16 04:19:00;;;;;;;16.40;8.35;;;5.90;44.00;;;;;;4981407;28;20384;-83
2023/04/16 04:21:30;;;;;;;13.98;7.88;;;6.10;43.60;;;;;;4999814;28;20049;-83
2023/04/16 04:23:56;;;;;;;14.93;7.55;;;6.20;43.40;;;;;;5004328;28;20017;-84
2023/04/16 04:26:22;;;;;;;15.70;7.78;;;6.40;43.30;;;;;;4998669;28;20030;-85
2023/04/16 04:28:49;;;;;;;12.27;8.65;;;6.50;42.60;;;;;;5002454;28;20022;-83
2023/04/16 04:31:15;;;;;;;13.30;7.72;;;6.70;42.80;;;;;;5008188;28;20026;-86
2023/04/16 04:33:41;;;;;;;12.40;8.13;;;7.00;42.70;;;;;;5004136;28;20041;-84
2023/04/16 04:36:07;;;;;;;16.65;7.93;;;7.60;42.20;;;;;;5002664;28;20101;-87
2023/04/16 04:38:32;;;;;;;18.58;8.68;;;8.10;40.50;;;;;;5023327;28;20041;-86
2023/04/16 04:40:58;;;;;;;10.73;7.63;;;8.70;39.90;;;;;;5018646;28;20018;-86
2023/04/16 04:43:24;;;;;;;12.52;8.23;;;9.30;39.00;;;;;;5005960;28;20026;-84
2023/04/16 04:45:50;;;;;;;20.25;8.65;;;9.80;38.30;;;;;;4989176;28;20093;-85
2023/04/16 04:48:16;;;;;;;14.73;8.35;;;10.20;37.30;;;;;;4991192;28;20018;-86
2023/04/16 04:50:44;;;;;;;11.65;7.65;;;10.40;36.70;;;;;;4993041;28;20390;-86
2023/04/16 04:53:10;;;;;;;12.40;7.88;;;10.60;36.30;;;;;;5001430;28;20037;-83
2023/04/16 04:55:39;;;;;;;12.82;7.40;;;10.80;36.00;;;;;;5020440;28;20030;-83
2023/04/16 04:58:06;;;;;;;19.52;8.57;;;11.20;35.50;;;;;;5013432;28;20027;-83
2023/04/16 05:00:33;;;;;;;19.45;8.90;;;11.70;35.10;;;;;;5024066;28;20119;-86
2023/04/16 05:03:02;;;;;;;13.98;7.90;;;12.20;34.60;;;;;;5016865;28;20056;-86
2023/04/16 05:05:28;;;;;;;13.70;8.00;;;12.60;33.60;;;;;;5008688;28;20369;-86
2023/04/16 05:07:54;;;;;;;10.00;6.82;;;12.80;33.40;;;;;;5002520;28;20026;-85
2023/04/16 05:10:20;;;;;;;12.65;6.93;;;12.80;32.80;;;;;;5018147;28;20109;-83
2023/04/16 05:12:50;;;;;;;16.83;9.45;;;12.50;33.00;;;;;;5015795;28;20133;-84
2023/04/16 05:15:16;;;;;;;16.80;8.05;;;12.50;33.30;;;;;;4996317;28;20053;-85
2023/04/16 05:17:42;;;;;;;11.95;7.78;;;12.50;33.20;;;;;;5003064;28;20060;-85
2023/04/16 05:20:10;;;;;;;11.68;8.23;;;12.10;33.30;;;;;;5017417;28;20026;-86
2023/04/16 05:22:39;;;;;;;13.75;8.25;;;12.00;33.70;;;;;;5008451;28;20384;-85
2023/04/16 05:25:07;;;;;;;12.07;7.95;;;11.90;33.70;;;;;;4996984;28;20021;-87
2023/04/16 05:27:33;;;;;;;14.85;8.18;;;11.80;33.60;;;;;;5007132;28;20041;-83
2023/04/16 05:30:00;;;;;;;21.95;8.65;;;11.90;33.80;;;;;;4999790;28;20102;-87
2023/04/16 05:32:26;;;;;;;13.48;8.93;;;12.30;33.80;;;;;;4988076;28;20022;-87
2023/04/16 05:34:55;;;;;;;12.73;8.05;;;12.80;33.40;;;;;;4999526;28;20480;-84
2023/04/16 05:37:27;;;;;;;13.90;8.35;;;13.30;32.80;;;;;;4999328;28;20034;-87
2023/04/16 05:39:55;;;;;;;14.77;6.95;;;13.70;32.30;;;;;;5002111;28;20570;-86
2023/04/16 05:42:21;;;;;;;12.52;7.20;;;14.30;31.80;;;;;;4989126;28;20045;-84
2023/04/16 05:44:47;;;;;;;14.70;8.13;;;14.80;31.30;;;;;;5012770;28;20022;-85
2023/04/16 05:47:13;;;;;;;12.55;7.45;;;;;;;;;;4998084;28;20034;-88
2023/04/16 05:49:39;;;;;;;13.05;7.72;;;16.90;42.40;;;;;;4998806;28;20120;-85
2023/04/16 05:52:06;;;;;;;16.13;8.50;;;17.60;29.20;;;;;;5005017;28;20054;-86
2023/04/16 05:54:32;;;;;;;13.05;7.20;;;18.70;28.60;;;;;;4996542;28;20026;-87
2023/04/16 05:57:00;;;;;;;16.88;8.15;;;19.00;27.80;;;;;;5004172;28;20113;-86
2023/04/16 05:59:26;;;;;;;15.35;7.82;;;;;;;;;;4988892;28;20026;-89
2023/04/16 06:01:52;;;;;;;15.85;8.10;;;19.90;27.10;;;;;;4998700;28;20046;-89
2023/04/16 06:04:18;;;;;;;14.65;7.63;;;20.70;26.90;;;;;;5012048;28;20053;-88
2023/04/16 06:06:45;;;;;;;17.33;7.75;;;21.60;26.60;;;;;;5012364;28;20579;-87
2023/04/16 06:09:11;;;;;;;11.93;7.80;;;22.10;26.00;;;;;;4985032;28;20496;-86
2023/04/16 06:11:37;;;;;;;18.65;10.20;;;22.00;25.80;;;;;;4999076;28;20045;-86
2023/04/16 06:14:03;;;;;;;12.68;7.40;;;21.40;25.80;;;;;;5009241;28;20035;-84
2023/04/16 06:16:29;;;;;;;15.43;7.70;;;20.70;25.80;;;;;;4985266;28;20025;-85
2023/04/16 06:18:55;;;;;;;14.98;7.63;;;20.00;26.50;;;;;;4995954;28;20037;-88
2023/04/16 06:21:21;;;;;;;12.25;6.97;;;20.30;27.10;;;;;;5005575;28;20030;-87
2023/04/16 06:23:47;;;;;;;11.93;7.35;;;20.30;26.40;;;;;;5002350;28;20028;-89
2023/04/16 06:26:13;;;;;;;12.68;6.97;;;20.40;26.90;;;;;;5009234;28;20026;-86
2023/04/16 06:28:41;;;;;;;13.35;6.95;;;21.00;26.30;;;;;;5009107;28;20132;-87
2023/04/16 06:31:07;;;;;;;11.10;6.55;;;21.80;25.80;;;;;;4997130;28;20079;-87
2023/04/16 06:33:33;;;;;;;14.30;7.75;;;22.90;25.00;;;;;;4999425;28;20053;-90
2023/04/16 06:36:03;;;;;;;18.17;7.50;;;22.90;25.00;;;;;;4995775;28;20487;-87
2023/04/16 06:38:30;;;;;;;12.60;7.28;;;23.10;25.00;;;;;;5016064;28;20125;-91
2023/04/16 06:40:58;;;;;;;15.20;7.20;;;23.10;25.00;;;;;;5024162;28;20022;-91
2023/04/16 06:43:32;;;;;;;14.93;6.50;;;23.10;24.90;;;;;;5022995;28;20048;-91
2023/04/16 06:46:01;;;;;;;13.95;7.30;;;22.60;24.80;;;;;;5010848;28;20383;-86
2023/04/16 06:48:28;;;;;;;13.65;7.18;;;21.90;24.80;;;;;;4971460;28;20487;-93
2023/04/16 06:50:55;;;;;;;13.40;8.02;;;21.30;25.30;;;;;;5025582;28;20060;-92
2023/04/16 06:53:21;;;;;;;17.00;8.23;;;20.00;25.90;;;;;;5015608;28;20038;-92
2023/04/16 06:55:47;;;;;;;16.33;7.63;;;19.50;26.80;;;;;;5020236;28;20108;-91
2023/04/16 06:58:13;;;;;;;13.90;7.15;;;19.50;27.10;;;;;;5007484;28;20058;-80
2023/04/16 07:00:39;;;;;;;15.95;6.95;;;19.70;26.80;;;;;;4999918;28;20494;-82
2023/04/16 07:03:05;;;;;;;13.68;7.18;;;20.10;26.50;;;;;;4975610;28;20039;-91
2023/04/16 07:05:31;;;;;;;15.63;8.05;;;20.60;26.20;;;;;;4979948;28;20030;-86
2023/04/16 07:07:58;;;;;;;13.40;7.60;;;20.80;26.10;;;;;;4973991;28;20046;-84
2023/04/16 07:10:24;;;;;;;15.00;7.45;;;21.00;25.90;;;;;;4979706;28;20035;-85
2023/04/16 07:12:50;;;;;;;15.75;6.85;;;20.60;26.00;;;;;;4985867;28;20039;-85
2023/04/16 07:15:16;;;;;;;11.32;6.63;;;20.20;26.10;;;;;;4985488;28;20138;-84
2023/04/16 07:17:42;;;;;;;15.73;7.57;;;19.60;26.10;;;;;;4959117;28;20043;-85
2023/04/16 07:20:09;;;;;;;9.93;5.82;;;19.50;26.70;;;;;;4967352;28;20024;-84
2023/04/16 07:22:35;;;;;;;14.02;6.90;;;19.40;26.00;;;;;;4997517;28;20046;-83
2023/04/16 07:25:01;;;;;;;13.60;7.30;;;19.50;26.20;;;;;;4982075;28;20026;-85
2023/04/16 07:27:27;;;;;;;14.98;7.15;;;20.30;26.10;;;;;;4984382;28;20031;-86
2023/04/16 07:29:53;;;;;;;13.73;6.78;;;20.90;25.50;;;;;;5001740;28;20523;-84
2023/04/16 07:32:21;;;;;;;17.42;6.70;;;20.70;25.60;;;;;;4985488;28;20042;-84
2023/04/16 07:34:47;;;;;;;10.88;6.93;;;20.00;25.90;;;;;;5007936;28;20032;-87
2023/04/16 07:37:13;;;;;;;12.43;6.82;;;19.60;26.00;;;;;;4982234;28;20463;-86
2023/04/16 07:39:39;;;;;;;9.30;5.68;;;19.20;26.20;;;;;;4995846;28;20460;-86
2023/04/16 07:42:05;;;;;;;11.80;6.18;;;18.80;26.50;;;;;;4975043;28;20027;-87
2023/04/16 07:44:31;;;;;;;11.60;7.33;;;18.00;26.50;;;;;;5010247;28;20030;-90
2023/04/16 07:46:57;;;;;;;11.18;6.13;;;17.40;27.10;;;;;;4992792;28;20093;-87
2023/04/16 07:49:27;;;;;;;13.07;6.40;;;17.00;27.30;;;;;;4966725;28;20086;-89
2023/04/16 07:51:54;;;;;;;6.82;4.93;;;16.70;27.30;;;;;;4951256;29;20044;-90
2023/04/16 07:54:30;;;;;;;7.30;4.70;;;16.90;26.80;;;;;;4933336;29;20051;-89
2023/04/16 07:56:57;;;;;;;6.07;4.55;;;17.10;26.40;;;;;;4933648;29;20063;-91
2023/04/16 07:59:24;;;;;;;11.48;4.60;;;17.50;26.30;;;;;;4956971;28;20098;-92
2023/04/16 08:01:52;;;;;;;7.40;4.95;;;17.60;26.30;;;;;;4985862;28;20138;-90
2023/04/16 08:04:23;;;;;;;9.07;4.80;;;18.40;26.20;;;;;;4962844;29;20030;-87
2023/04/16 08:06:50;;;;;;;11.35;4.88;;;19.50;25.60;;;;;;4968304;28;20063;-81
2023/04/16 08:09:16;;;;;;;13.43;5.45;;;20.60;24.90;;;;;;4960544;28;20086;-80
2023/04/16 08:11:42;;;;;;;8.20;4.90;;;21.30;24.30;;;;;;4957909;29;20031;-80
2023/04/16 08:14:08;;;;;;;8.57;4.30;;;21.60;24.00;;;;;;4974163;28;20031;-81
2023/04/16 08:16:34;;;;;;;5.43;4.15;;;22.00;23.40;;;;;;4942899;28;20035;-81
2023/04/16 08:19:00;;;;;;;7.15;4.00;;;21.80;23.30;;;;;;4954736;29;20043;-81
2023/04/16 08:21:27;;;;;;;6.03;4.40;;;21.40;23.20;;;;;;4968927;28;20057;-80
2023/04/16 08:23:53;;;;;;;11.07;4.57;;;21.00;23.80;;;;;;4949231;28;20031;-84
2023/04/16 08:26:19;;;;;;;10.15;5.40;;;20.70;23.50;;;;;;4971748;28;20268;-80
2023/04/16 08:28:45;;;;;;;6.07;4.65;;;20.70;23.70;;;;;;4983641;28;20029;-81
2023/04/16 08:31:20;;;;;;;6.65;4.40;;;20.60;23.70;;;;;;5002747;28;20025;-80
2023/04/16 08:33:46;;;;;;;10.48;4.82;;;20.20;23.80;;;;;;4988135;28;20026;-81
2023/04/16 08:36:12;;;;;;;9.88;4.63;;;20.00;23.50;;;;;;5000442;28;20026;-84
2023/04/16 08:38:38;;;;;;;7.90;4.30;;;20.40;23.70;;;;;;5001756;28;20175;-81
2023/04/16 08:41:08;;;;;;;8.30;4.07;;;21.60;23.20;;;;;;5000795;28;20026;-82
2023/04/16 08:43:38;;;;;;;9.20;4.55;;;22.40;22.50;;;;;;5003215;28;20031;-81
2023/04/16 08:46:04;;;;;;;7.45;4.05;;;21.90;22.20;;;;;;4999000;28;20490;-80
2023/04/16 08:48:33;;;;;;;5.07;4.13;;;21.50;22.50;;;;;;4981882;28;20022;-79
2023/04/16 08:51:00;;;;;;;11.70;4.93;;;22.00;22.60;;;;;;5013174;28;20098;-81
2023/04/16 08:53:36;;;;;;;8.82;4.50;;;;;;;;;;5000041;28;20499;-82
2023/04/16 08:56:07;;;;;;;11.40;5.35;;;24.00;21.70;;;;;;5006503;28;20030;-81
2023/04/16 08:58:35;;;;;;;11.93;4.10;;;25.00;21.70;;;;;;5016817;28;20396;-81
2023/04/16 09:01:05;;;;;;;12.05;5.05;;;25.90;21.50;;;;;;5017302;28;20066;-83
2023/04/16 09:03:31;;;;;;;10.23;5.03;;;26.70;21.30;;;;;;5018428;28;20113;-83
2023/04/16 09:05:58;;;;;;;8.75;5.10;;;27.60;21.20;;;;;;5020579;28;20087;-82
2023/04/16 09:08:28;;;;;;;;;;;28.20;21.00;;;;;;5024192;28;20029;-82
2023/04/16 09:10:56;;;;;;;7.18;4.57;;;28.10;21.60;;;;;;5019767;28;19920;-89
2023/04/16 09:13:22;;;;;;;8.35;4.78;;;27.90;20.80;;;;;;5018117;28;20038;-87
2023/04/16 09:15:52;;;;;;;9.40;4.25;;;27.60;20.60;;;;;;4996574;28;20072;-88
2023/04/16 09:18:21;;;;;;;4.93;3.78;;;27.80;20.60;;;;;;5009582;28;20592;-88
2023/04/16 09:20:49;;;;;;;9.27;4.13;;;26.30;20.50;;;;;;5006948;28;20134;-90
2023/04/16 09:23:16;;;;;;;6.50;3.72;;;25.80;21.00;;;;;;5014501;28;20034;-79
2023/04/16 09:25:43;;;;;;;7.15;3.63;;;25.30;20.40;;;;;;5013018;28;20094;-82
2023/04/16 09:28:11;;;;;;;7.33;4.00;;;24.00;21.10;;;;;;5021065;28;20025;-85
2023/04/16 09:30:37;;;;;;;7.82;4.72;;;24.10;21.40;;;;;;5002110;28;20496;-82
2023/04/16 09:33:21;;;;;;;7.88;3.80;;;24.80;21.50;;;;;;4994166;28;20032;-82
2023/04/16 09:35:49;;;;;;;7.85;4.75;;;25.30;21.20;;;;;;4997692;28;20018;-82
2023/04/16 09:38:15;;;;;;;5.95;4.00;;;25.70;21.20;;;;;;4998525;28;20065;-81
2023/04/16 09:40:42;;;;;;;7.33;3.83;;;25.70;20.90;;;;;;5003550;28;20112;-81
2023/04/16 09:43:17;;;;;;;8.00;4.00;;;25.20;21.00;;;;;;5017517;28;20033;-82
2023/04/16 09:45:54;;;;;;;6.40;3.88;;;;;;;;;;5012239;28;20050;-80
2023/04/16 09:48:30;;;;;;;7.45;3.95;;;24.20;20.80;;;;;;4997298;28;20421;-79
2023/04/16 09:50:57;;;;;;;7.78;4.28;;;23.00;21.80;;;;;;5011457;28;20023;-82
2023/04/16 09:53:27;;;;;;;5.35;3.53;;;22.30;22.00;;;;;;4998125;28;20479;-83
2023/04/16 09:56:01;;;;;;;7.95;3.25;;;22.00;22.20;;;;;;4998242;28;20023;-81
2023/04/16 09:58:27;;;;;;;8.80;4.40;;;21.50;22.50;;;;;;5011723;28;20096;-79
2023/04/16 10:01:11;;;;;;;8.38;4.45;;;21.30;22.60;;;;;;5000830;28;20881;-81
2023/04/16 10:03:39;;;;;;;8.30;4.30;;;21.10;22.90;;;;;;5004057;28;20038;-79
2023/04/16 10:06:14;;;;;;;8.85;5.25;;;21.20;23.10;;;;;;5003669;28;20451;-82
2023/04/16 10:08:47;;;;;;;5.03;3.88;;;21.60;23.10;;;;;;5005522;28;20027;-80
2023/04/16 10:11:14;;;;;;;8.93;4.50;;;21.90;22.90;;;;;;4999959;28;20080;-79
2023/04/16 10:13:40;;;;;;;9.18;3.88;;;21.80;22.80;;;;;;5004733;28;20022;-82
2023/04/16 10:16:09;;;;;;;6.82;3.88;;;22.10;22.70;;;;;;5024103;28;20033;-80
2023/04/16 10:18:37;;;;;;;8.95;4.60;;;22.80;22.70;;;;;;4991114;28;20176;-80
2023/04/16 10:21:04;;;;;;;9.35;3.47;;;23.60;22.30;;;;;;5004711;28;20022;-81
2023/04/16 10:23:33;;;;;;;6.03;4.07;;;22.40;21.90;;;;;;5002302;28;20465;-78
2023/04/16 10:26:00;;;;;;;7.32;3.90;;;20.40;23.20;;;;;;5003948;28;20076;-80
2023/04/16 10:28:28;;;;;;;;;;;19.40;23.40;;;;;;5022413;28;20026;-81
2023/04/16 10:30:56;;;;;;;5.78;3.80;;;18.90;23.60;;;;;;4998072;28;19905;-81
2023/04/16 10:33:26;;;;;;;13.70;7.80;;;18.50;23.80;;;;;;5010110;28;20380;-80
2023/04/16 10:36:07;;;;;;;10.68;6.15;;;18.30;24.10;;;;;;5010044;28;20018;-79
2023/04/16 10:38:34;;;;;;;5.35;3.72;;;18.20;24.30;;;;;;5000993;28;20039;-79
2023/04/16 10:41:02;;;;;;;8.52;4.53;;;18.40;24.30;;;;;;5001220;28;20022;-79
2023/04/16 10:43:32;;;;;;;5.82;3.60;;;18.40;24.40;;;;;;5009513;28;20026;-79
2023/04/16 10:46:20;;;;;;;9.85;4.00;;;18.10;24.30;;;;;;4996684;28;20476;-80
2023/04/16 10:48:47;;;;;;;10.10;4.40;;;17.70;24.80;;;;;;5006496;28;20030;-80
2023/04/16 10:51:30;;;;;;;5.05;3.78;;;17.40;25.30;;;;;;5006148;28;20026;-80
2023/04/16 10:54:10;;;;;;;8.85;4.20;;;17.20;25.10;;;;;;4989670;28;20041;-88
2023/04/16 10:56:37;;;;;;;7.78;4.35;;;16.90;25.60;;;;;;5017416;28;20364;-79
2023/04/16 10:59:08;;;;;;;6.28;3.75;;;16.70;25.40;;;;;;5013165;28;20037;-79
2023/04/16 11:01:42;;;;;;;8.48;4.45;;;16.40;25.40;;;;;;5007268;28;20045;-79
2023/04/16 11:04:20;;;;;;;5.47;3.88;;;16.40;25.40;;;;;;5025435;28;20062;-81
2023/04/16 11:07:14;;;;;;;6.00;3.20;;;16.50;25.50;;;;;;4992036;28;20468;-80
2023/04/16 11:09:58;;;;;;;6.95;3.50;;;16.40;25.30;;;;;;4984741;28;20033;-83
2023/04/16 11:12:26;;;;;;;4.82;3.60;;;16.40;25.30;;;;;;5003681;28;20019;-82
2023/04/16 11:15:02;;;;;;;8.93;3.92;;;16.00;25.50;;;;;;4999872;28;20020;-80
2023/04/16 11:17:41;;;;;;;6.07;3.35;;;15.70;26.00;;;;;;4999878;28;20023;-80
2023/04/16 11:20:14;;;;;;;9.60;3.85;;;15.60;26.10;;;;;;5008605;28;20041;-81
2023/04/16 11:22:41;;;;;;;13.82;6.80;;;15.50;26.30;;;;;;4997582;28;20421;-81
2023/04/16 11:25:07;;;;;;;12.30;4.43;;;15.60;26.40;;;;;;5014365;28;20029;-82
2023/04/16 11:27:33;;;;;;;9.88;4.13;;;15.50;26.60;;;;;;4999813;28;20566;-81
2023/04/16 11:30:00;;;;;;;8.02;3.90;;;;;;;;;;4996224;28;20064;-82
2023/04/16 11:32:26;;;;;;;6.38;4.03;;;14.80;26.10;;;;;;5010366;28;20034;-80
2023/04/16 11:34:52;;;;;;;9.05;3.42;;;14.80;26.90;;;;;;5008644;28;20353;-81
2023/04/16 11:37:21;;;;;;;8.65;3.85;;;14.90;26.80;;;;;;5015463;28;20109;-80
2023/04/16 11:39:51;;;;;;;6.88;4.13;;;14.70;26.70;;;;;;5004594;28;20026;-82
2023/04/16 11:42:21;;;;;;;9.45;3.67;;;14.50;26.90;;;;;;5000442;28;20026;-81
2023/04/16 11:44:55;;;;;;;6.72;3.63;;;14.40;27.00;;;;;;5009120;28;20036;-81
2023/04/16 11:47:25;;;;;;;6.43;4.05;;;14.30;27.20;;;;;;5000116;28;20026;-82
2023/04/16 11:49:51;;;;;;;8.20;3.92;;;14.40;27.10;;;;;;5006616;28;20150;-82
2023/04/16 11:52:28;;;;;;;6.65;3.38;;;14.40;27.10;;;;;;5001806;28;20124;-80
2023/04/16 11:54:55;;;;;;;7.88;3.83;;;14.40;27.10;;;;;;4999121;28;20049;-81
2023/04/16 11:57:30;;;;;;;8.45;4.15;;;14.30;26.90;;;;;;4989808;28;21726;-79
2023/04/16 11:59:58;;;;;;;11.13;4.35;;;14.10;27.20;;;;;;5014878;28;20037;-81
2023/04/16 12:02:40;;;;;;;9.85;4.32;;;14.10;27.60;;;;;;5012161;28;20073;-80
2023/04/16 12:05:27;;;;;;;7.70;4.80;;;14.20;27.80;;;;;;5014865;28;20033;-79
2023/04/16 12:07:54;;;;;;;11.07;4.85;;;14.20;27.80;;;;;;5003622;28;20037;-79
2023/04/16 12:10:20;;;;;;;7.67;5.03;;;14.20;27.70;;;;;;5008626;28;20030;-80
2023/04/16 12:12:46;;;;;;;9.05;4.57;;;14.10;27.80;;;;;;5002649;28;20319;-89
2023/04/16 12:15:12;;;;;;;7.63;4.60;;;14.20;27.90;;;;;;5015561;28;20056;-87
2023/04/16 12:17:38;;;;;;;10.70;3.60;;;14.20;27.70;;;;;;5010604;28;20030;-84
2023/04/16 12:20:14;;;;;;;10.13;3.67;;;14.30;27.40;;;;;;5031429;28;20018;-87
2023/04/16 12:22:46;;;;;;;13.15;6.80;;;14.20;27.50;;;;;;5024310;28;20029;-90
2023/04/16 12:25:17;;;;;;;9.35;4.68;;;14.30;27.60;;;;;;5016243;28;20006;-86
2023/04/16 12:27:45;;;;;;;5.32;4.22;;;14.40;27.60;;;;;;5019993;28;20022;-88
2023/04/16 12:30:15;;;;;;;6.43;4.05;;;14.30;27.50;;;;;;5028393;28;20022;-88
2023/04/16 12:32:46;;;;;;;6.38;4.13;;;14.40;27.50;;;;;;5016928;28;20112;-88
2023/04/16 12:35:12;;;;;;;5.47;3.67;;;14.30;27.50;;;;;;5030780;28;20026;-79
2023/04/16 12:37:40;;;;;;;6.45;4.45;;;14.20;27.40;;;;;;5016593;28;20034;-83
2023/04/16 12:40:06;;;;;;;6.38;3.80;;;14.00;27.60;;;;;;4978813;28;20109;-80
2023/04/16 12:42:35;;;;;;;13.05;4.18;;;13.90;27.90;;;;;;4995318;28;20030;-81
2023/04/16 12:45:05;;;;;;;8.02;3.90;;;14.00;28.30;;;;;;4990537;28;20109;-81
2023/04/16 12:47:34;;;;;;;6.90;4.05;;;14.10;28.00;;;;;;5006360;28;20029;-82